Time;durP1;ratioP1;P1;durP2;ratioP2;P2;SDS_P1;SDS_P2;PMS_P1;PMS_P2;Temp;Humidity;BMP_temperature;BMP_pressure;BME280_temperature;BME280_humidity;BME280_pressure;Samples;Min_cycle;Max_cycle;Signal;HPM_P1;HPM_P2
2023/11/06 00:01:43;;;;;;;1.00;0.50;;;9.60;91.40;;;;;;5097267;28;20040;-76
2023/11/06 00:04:09;;;;;;;0.68;0.55;;;9.50;91.40;;;;;;5097866;28;20039;-75
2023/11/06 00:06:34;;;;;;;0.80;0.40;;;9.60;91.50;;;;;;5080198;28;20119;-75
2023/11/06 00:09:03;;;;;;;1.48;0.40;;;9.60;91.40;;;;;;5095803;28;20036;-75
2023/11/06 00:11:29;;;;;;;0.73;0.40;;;9.60;91.40;;;;;;5096657;28;20497;-75
2023/11/06 00:13:55;;;;;;;1.77;0.50;;;9.60;91.40;;;;;;5078136;28;20101;-75
2023/11/06 00:16:21;;;;;;;0.80;0.38;;;9.60;91.40;;;;;;5079892;28;20069;-74
2023/11/06 00:18:47;;;;;;;0.35;0.35;;;9.60;91.40;;;;;;5096444;28;20100;-75
2023/11/06 00:21:13;;;;;;;0.65;0.40;;;9.70;91.40;;;;;;5080495;28;20040;-75
2023/11/06 00:23:39;;;;;;;0.93;0.60;;;9.70;91.70;;;;;;5096606;28;20043;-75
2023/11/06 00:26:06;;;;;;;0.45;0.40;;;9.70;91.40;;;;;;5079726;28;20047;-75
2023/11/06 00:28:32;;;;;;;0.75;0.35;;;9.70;91.40;;;;;;5079760;28;20434;-75
2023/11/06 00:30:57;;;;;;;0.98;0.38;;;9.70;91.40;;;;;;5114715;28;20089;-75
2023/11/06 00:33:23;;;;;;;0.25;0.25;;;9.80;91.40;;;;;;5079667;28;20055;-75
2023/11/06 00:35:50;;;;;;;0.82;0.32;;;9.70;91.40;;;;;;5096567;28;20874;-75
2023/11/06 00:38:16;;;;;;;0.70;0.45;;;9.70;91.40;;;;;;5096093;28;20108;-75
2023/11/06 00:40:42;;;;;;;0.65;0.40;;;9.70;91.40;;;;;;5115150;28;20036;-74
2023/11/06 00:43:08;;;;;;;0.60;0.35;;;9.70;91.40;;;;;;5079448;28;20074;-75
2023/11/06 00:45:34;;;;;;;0.93;0.60;;;9.60;91.40;;;;;;5096428;28;20084;-75
2023/11/06 00:48:00;;;;;;;0.40;0.40;;;9.60;91.40;;;;;;5079412;28;20439;-75
2023/11/06 00:50:25;;;;;;;1.98;0.70;;;9.70;91.40;;;;;;5114788;28;20047;-75
2023/11/06 00:52:51;;;;;;;1.02;0.43;;;9.70;91.40;;;;;;5062547;28;20397;-75
2023/11/06 00:55:17;;;;;;;0.40;0.40;;;9.70;91.40;;;;;;5095980;28;20123;-75
2023/11/06 00:57:42;;;;;;;0.47;0.40;;;9.60;91.40;;;;;;5077200;28;20044;-75
2023/11/06 01:00:10;;;;;;;1.60;0.47;;;9.70;91.40;;;;;;5114269;28;20027;-76
2023/11/06 01:02:37;;;;;;;0.50;0.32;;;9.70;91.40;;;;;;5095728;28;20401;-75
2023/11/06 01:05:04;;;;;;;0.60;0.50;;;9.70;91.40;;;;;;5095774;28;20040;-75
2023/11/06 01:07:31;;;;;;;0.60;0.30;;;9.70;91.40;;;;;;5077145;28;20401;-75
2023/11/06 01:09:57;;;;;;;0.73;0.32;;;9.70;91.40;;;;;;5113950;28;20068;-75
2023/11/06 01:12:23;;;;;;;0.82;0.40;;;9.60;91.40;;;;;;5095787;28;20463;-75
2023/11/06 01:14:49;;;;;;;1.77;0.60;;;9.70;91.50;;;;;;5077497;28;20406;-74
2023/11/06 01:17:15;;;;;;;0.40;0.40;;;9.70;91.50;;;;;;5114216;28;20043;-75
2023/11/06 01:19:41;;;;;;;0.57;0.40;;;9.60;91.50;;;;;;5061936;28;20122;-75
2023/11/06 01:22:07;;;;;;;0.65;0.40;;;9.70;91.50;;;;;;5095474;28;20078;-75
2023/11/06 01:24:33;;;;;;;0.85;0.30;;;9.70;91.50;;;;;;5113781;28;20399;-76
2023/11/06 01:26:58;;;;;;;0.47;0.30;;;9.60;91.40;;;;;;5078895;28;20045;-74
2023/11/06 01:29:24;;;;;;;0.20;0.20;;;9.60;91.50;;;;;;5094598;28;20090;-75
2023/11/06 01:31:50;;;;;;;1.25;0.30;;;9.60;91.50;;;;;;5077179;28;20043;-75
2023/11/06 01:34:16;;;;;;;0.32;0.30;;;9.60;91.50;;;;;;5076499;28;20051;-75
2023/11/06 01:36:42;;;;;;;0.88;0.50;;;9.60;91.50;;;;;;5078279;28;20047;-75
2023/11/06 01:39:10;;;;;;;1.00;0.50;;;9.70;91.50;;;;;;5113511;28;20035;-75
2023/11/06 01:41:37;;;;;;;0.68;0.20;;;9.60;91.50;;;;;;5113883;28;20043;-76
2023/11/06 01:44:03;;;;;;;0.30;0.30;;;9.60;91.40;;;;;;5113870;28;20044;-75
2023/11/06 01:46:29;;;;;;;0.35;0.30;;;9.60;91.40;;;;;;5078554;28;20566;-75
2023/11/06 01:48:55;;;;;;;0.95;0.40;;;9.60;91.50;;;;;;5112957;28;20043;-74
2023/11/06 01:51:21;;;;;;;0.20;0.20;;;9.60;91.40;;;;;;5078222;28;20035;-75
2023/11/06 01:53:47;;;;;;;0.30;0.30;;;9.60;91.70;;;;;;5093224;28;20036;-74
2023/11/06 01:56:14;;;;;;;0.60;0.20;;;9.60;91.40;;;;;;5113152;28;20044;-75
2023/11/06 01:58:39;;;;;;;0.28;0.28;;;9.60;91.40;;;;;;5077945;28;20129;-75
2023/11/06 02:01:06;;;;;;;0.30;0.28;;;9.70;91.40;;;;;;5093211;28;20587;-75
2023/11/06 02:03:33;;;;;;;0.20;0.20;;;9.70;91.40;;;;;;5095232;28;20383;-75
2023/11/06 02:05:59;;;;;;;1.02;0.28;;;9.70;91.40;;;;;;5094725;28;20051;-75
2023/11/06 02:08:25;;;;;;;0.85;0.30;;;9.70;91.40;;;;;;5077944;28;20067;-75
2023/11/06 02:10:51;;;;;;;0.17;0.17;;;9.70;91.40;;;;;;5094653;28;20407;-75
2023/11/06 02:13:17;;;;;;;0.30;0.30;;;9.70;91.40;;;;;;5094611;28;20040;-75
2023/11/06 02:15:43;;;;;;;0.75;0.40;;;9.70;91.40;;;;;;5077966;28;20058;-75
2023/11/06 02:18:09;;;;;;;0.68;0.32;;;9.70;91.40;;;;;;5077688;28;20071;-75
2023/11/06 02:20:36;;;;;;;0.30;0.30;;;9.70;91.40;;;;;;5077700;28;20078;-75
2023/11/06 02:23:03;;;;;;;0.63;0.50;;;9.70;91.40;;;;;;5113111;28;20082;-75
2023/11/06 02:25:30;;;;;;;1.65;0.40;;;9.70;91.30;;;;;;5112421;28;20047;-75
2023/11/06 02:27:56;;;;;;;1.13;0.40;;;9.80;91.30;;;;;;5077581;28;20054;-75
2023/11/06 02:30:22;;;;;;;0.30;0.30;;;9.80;91.30;;;;;;5075530;28;20048;-75
2023/11/06 02:32:48;;;;;;;0.88;0.50;;;9.70;91.30;;;;;;5113083;28;20041;-75
2023/11/06 02:35:14;;;;;;;0.55;0.40;;;9.70;91.40;;;;;;5093634;28;20043;-75
2023/11/06 02:37:39;;;;;;;1.30;0.55;;;9.70;91.40;;;;;;5095072;28;20043;-75
2023/11/06 02:40:06;;;;;;;0.63;0.50;;;9.70;91.40;;;;;;5077079;28;20043;-75
2023/11/06 02:42:34;;;;;;;0.50;0.50;;;9.70;91.50;;;;;;5094193;28;20054;-75
2023/11/06 02:45:00;;;;;;;0.55;0.47;;;9.70;91.50;;;;;;5112915;28;20081;-75
2023/11/06 02:47:26;;;;;;;0.60;0.60;;;9.60;91.50;;;;;;5112365;28;20044;-75
2023/11/06 02:49:52;;;;;;;1.08;0.73;;;9.70;91.50;;;;;;5094095;28;20131;-75
2023/11/06 02:52:18;;;;;;;1.38;0.50;;;9.70;91.50;;;;;;5112643;28;20056;-75
2023/11/06 02:54:44;;;;;;;0.38;0.38;;;9.70;91.50;;;;;;5112692;28;20393;-75
2023/11/06 02:57:10;;;;;;;0.50;0.50;;;9.70;91.40;;;;;;5092231;28;20039;-75
2023/11/06 02:59:36;;;;;;;0.60;0.60;;;9.70;91.40;;;;;;5112233;28;20074;-74
2023/11/06 03:02:02;;;;;;;0.95;0.50;;;9.60;91.40;;;;;;5077169;28;20091;-75
2023/11/06 03:04:28;;;;;;;0.55;0.30;;;9.60;91.50;;;;;;5092808;28;20040;-75
2023/11/06 03:06:54;;;;;;;0.40;0.40;;;9.60;91.50;;;;;;5093837;28;20181;-75
2023/11/06 03:09:19;;;;;;;0.82;0.60;;;9.50;91.50;;;;;;5093489;28;20044;-75
2023/11/06 03:11:45;;;;;;;0.40;0.40;;;9.50;91.50;;;;;;5112104;28;20040;-75
2023/11/06 03:14:11;;;;;;;0.93;0.70;;;9.50;91.60;;;;;;5112345;28;20122;-75
2023/11/06 03:16:38;;;;;;;0.65;0.55;;;9.50;91.60;;;;;;5077057;28;20036;-75
2023/11/06 03:19:05;;;;;;;0.95;0.50;;;9.50;91.60;;;;;;5093654;28;20050;-75
2023/11/06 03:21:31;;;;;;;0.98;0.47;;;9.40;91.60;;;;;;5092493;28;20406;-76
2023/11/06 03:23:57;;;;;;;0.52;0.50;;;9.40;91.60;;;;;;5075191;28;20036;-75
2023/11/06 03:26:23;;;;;;;0.93;0.52;;;9.40;91.60;;;;;;5077323;28;20040;-75
2023/11/06 03:28:48;;;;;;;0.85;0.47;;;9.50;91.90;;;;;;5075986;28;20087;-75
2023/11/06 03:31:14;;;;;;;1.02;0.60;;;9.40;91.70;;;;;;5075200;28;20087;-75
2023/11/06 03:33:40;;;;;;;0.68;0.57;;;9.40;91.90;;;;;;5112357;28;20039;-75
2023/11/06 03:36:07;;;;;;;0.50;0.50;;;9.50;91.70;;;;;;5094281;28;20067;-75
2023/11/06 03:38:33;;;;;;;1.38;0.55;;;9.50;91.70;;;;;;5093829;28;20043;-75
2023/11/06 03:40:59;;;;;;;2.08;0.73;;;9.40;91.60;;;;;;5093939;28;20093;-75
2023/11/06 03:43:25;;;;;;;0.95;0.50;;;9.40;91.60;;;;;;5111740;28;20493;-75
2023/11/06 03:45:51;;;;;;;1.05;0.38;;;9.40;91.60;;;;;;5092669;28;20131;-75
2023/11/06 03:48:16;;;;;;;1.33;0.40;;;9.50;91.60;;;;;;5093260;28;20043;-74
2023/11/06 03:50:43;;;;;;;0.93;0.50;;;9.50;91.60;;;;;;5076478;28;20507;-75
2023/11/06 03:53:10;;;;;;;0.82;0.30;;;9.40;91.60;;;;;;5079289;28;20043;-75
2023/11/06 03:55:36;;;;;;;0.90;0.40;;;9.40;91.60;;;;;;5096750;28;20126;-75
2023/11/06 03:58:03;;;;;;;0.63;0.55;;;9.40;91.60;;;;;;5115106;28;20493;-75
2023/11/06 04:00:30;;;;;;;0.45;0.32;;;9.40;91.60;;;;;;5115292;28;20039;-75
2023/11/06 04:02:55;;;;;;;0.28;0.28;;;9.50;91.70;;;;;;5096924;28;20036;-74
2023/11/06 04:05:21;;;;;;;0.65;0.40;;;9.40;91.60;;;;;;5114940;28;20043;-75
2023/11/06 04:07:47;;;;;;;1.55;0.30;;;9.40;91.70;;;;;;5097207;28;20047;-75
2023/11/06 04:10:15;;;;;;;0.75;0.30;;;9.30;91.60;;;;;;5097157;28;20134;-75
2023/11/06 04:12:40;;;;;;;1.17;0.30;;;9.40;91.60;;;;;;5080130;28;20047;-75
2023/11/06 04:15:07;;;;;;;0.30;0.30;;;9.40;91.60;;;;;;5096600;28;20047;-75
2023/11/06 04:17:33;;;;;;;0.60;0.30;;;9.40;91.60;;;;;;5080454;28;20435;-75
2023/11/06 04:19:59;;;;;;;0.73;0.35;;;9.30;91.60;;;;;;5096576;28;20404;-75
2023/11/06 04:22:25;;;;;;;0.30;0.30;;;9.30;91.60;;;;;;5096286;28;20397;-75
2023/11/06 04:24:51;;;;;;;0.75;0.30;;;9.30;91.60;;;;;;5079636;28;20047;-75
2023/11/06 04:27:16;;;;;;;0.35;0.30;;;9.30;91.60;;;;;;5096715;28;20039;-75
2023/11/06 04:29:42;;;;;;;1.75;0.50;;;9.30;91.60;;;;;;5115007;28;20047;-75
2023/11/06 04:32:08;;;;;;;0.85;0.57;;;9.30;91.60;;;;;;5114496;28;20038;-76
2023/11/06 04:34:33;;;;;;;0.20;0.20;;;9.30;91.60;;;;;;5096343;28;20123;-75
2023/11/06 04:36:59;;;;;;;1.02;0.30;;;9.30;91.60;;;;;;5114455;28;20032;-75
2023/11/06 04:39:25;;;;;;;0.90;0.40;;;9.30;91.60;;;;;;5096660;28;20040;-75
2023/11/06 04:41:51;;;;;;;0.98;0.30;;;9.30;91.60;;;;;;5114973;28;20050;-75
2023/11/06 04:44:16;;;;;;;1.45;0.40;;;9.20;91.60;;;;;;5115016;28;20027;-75
2023/11/06 04:46:42;;;;;;;0.65;0.43;;;9.20;91.60;;;;;;5095090;28;20138;-75
2023/11/06 04:49:08;;;;;;;0.20;0.20;;;9.20;91.60;;;;;;5079195;28;20047;-75
2023/11/06 04:51:33;;;;;;;0.70;0.30;;;9.20;91.60;;;;;;5113928;28;20375;-75
2023/11/06 04:53:59;;;;;;;0.30;0.30;;;9.20;91.60;;;;;;5095885;28;20462;-75
2023/11/06 04:56:25;;;;;;;1.00;0.20;;;9.20;91.70;;;;;;5062282;28;20036;-75
2023/11/06 04:58:50;;;;;;;0.38;0.28;;;9.20;91.90;;;;;;5079073;28;20043;-75
2023/11/06 05:01:17;;;;;;;0.30;0.30;;;9.20;91.70;;;;;;5078564;28;20442;-76
2023/11/06 05:03:43;;;;;;;0.38;0.22;;;9.20;91.70;;;;;;5095908;28;20055;-75
2023/11/06 05:06:09;;;;;;;1.05;0.30;;;9.10;91.70;;;;;;5114695;28;20043;-75
2023/11/06 05:08:36;;;;;;;0.15;0.15;;;9.10;91.60;;;;;;5095713;28;20082;-75
2023/11/06 05:11:02;;;;;;;0.65;0.30;;;9.20;91.70;;;;;;5096009;28;20382;-75
2023/11/06 05:13:28;;;;;;;0.63;0.30;;;9.10;91.60;;;;;;5077822;28;20101;-75
2023/11/06 05:15:53;;;;;;;1.00;0.30;;;9.10;91.60;;;;;;5077250;28;20524;-75
2023/11/06 05:18:19;;;;;;;0.73;0.30;;;9.10;91.60;;;;;;5079017;28;20054;-75
2023/11/06 05:20:45;;;;;;;0.45;0.35;;;9.10;91.60;;;;;;5095719;28;20405;-75
2023/11/06 05:23:11;;;;;;;1.20;0.30;;;9.10;91.60;;;;;;5114032;28;20363;-75
2023/11/06 05:25:37;;;;;;;0.75;0.40;;;9.10;91.60;;;;;;5078667;28;20035;-75
2023/11/06 05:28:04;;;;;;;0.47;0.30;;;9.10;91.60;;;;;;5113977;28;20489;-75
2023/11/06 05:30:30;;;;;;;0.85;0.38;;;9.10;91.60;;;;;;5095716;28;20040;-75
2023/11/06 05:32:57;;;;;;;1.05;0.50;;;9.10;91.60;;;;;;5077305;28;20040;-75
2023/11/06 05:35:23;;;;;;;1.38;0.40;;;9.10;91.60;;;;;;5114199;28;20032;-75
2023/11/06 05:37:51;;;;;;;1.02;0.40;;;9.10;91.60;;;;;;5095902;28;20070;-75
2023/11/06 05:40:17;;;;;;;0.47;0.35;;;9.10;91.50;;;;;;5094728;28;20040;-75
2023/11/06 05:42:43;;;;;;;0.30;0.30;;;9.10;91.50;;;;;;5062025;28;20046;-75
2023/11/06 05:45:09;;;;;;;0.47;0.30;;;9.10;91.50;;;;;;5113444;28;20502;-75
2023/11/06 05:47:35;;;;;;;0.20;0.20;;;9.10;91.50;;;;;;5095658;28;20047;-75
2023/11/06 05:50:02;;;;;;;0.68;0.40;;;9.10;91.50;;;;;;5095265;28;20554;-75
2023/11/06 05:52:28;;;;;;;0.73;0.38;;;9.10;91.50;;;;;;5093656;28;20036;-74
2023/11/06 05:54:54;;;;;;;0.55;0.22;;;9.20;91.50;;;;;;5113528;28;20367;-75
2023/11/06 05:57:19;;;;;;;1.13;0.52;;;9.10;91.50;;;;;;5094615;28;20036;-75
2023/11/06 05:59:45;;;;;;;0.60;0.30;;;9.10;91.50;;;;;;5078163;28;20085;-75
2023/11/06 06:02:11;;;;;;;1.30;0.45;;;9.10;91.50;;;;;;5113486;28;20043;-76
2023/11/06 06:04:40;;;;;;;1.42;0.32;;;9.20;91.50;;;;;;5095041;28;20043;-75
2023/11/06 06:07:06;;;;;;;0.32;0.30;;;9.10;91.40;;;;;;5095518;28;20046;-75
2023/11/06 06:09:32;;;;;;;1.10;0.60;;;9.20;91.40;;;;;;5113165;28;20140;-75
2023/11/06 06:12:00;;;;;;;0.98;0.40;;;9.20;91.50;;;;;;5079174;28;20126;-75
2023/11/06 06:14:25;;;;;;;1.45;0.55;;;9.20;91.50;;;;;;5095315;28;20036;-75
2023/11/06 06:16:51;;;;;;;1.35;0.40;;;9.20;91.50;;;;;;5093858;28;20093;-76
2023/11/06 06:19:18;;;;;;;0.55;0.40;;;9.20;91.40;;;;;;5113116;28;20127;-75
2023/11/06 06:21:44;;;;;;;0.52;0.40;;;9.30;91.50;;;;;;5095382;28;20039;-75
2023/11/06 06:24:11;;;;;;;0.50;0.50;;;9.20;91.40;;;;;;5094987;28;20043;-75
2023/11/06 06:26:37;;;;;;;1.73;0.60;;;9.20;91.40;;;;;;5093946;28;20486;-75
2023/11/06 06:29:04;;;;;;;1.45;0.40;;;9.30;91.40;;;;;;5113038;28;20039;-75
2023/11/06 06:31:30;;;;;;;0.63;0.40;;;9.30;91.30;;;;;;5094511;28;20031;-75
2023/11/06 06:33:56;;;;;;;3.47;0.88;;;9.30;91.30;;;;;;5094557;28;20050;-75
2023/11/06 06:36:23;;;;;;;1.42;0.65;;;9.40;91.30;;;;;;5112826;28;20036;-75
2023/11/06 06:38:49;;;;;;;1.58;0.75;;;9.40;91.50;;;;;;5078035;28;20046;-75
2023/11/06 06:41:15;;;;;;;1.92;0.60;;;9.40;91.20;;;;;;5094760;28;20062;-75
2023/11/06 06:43:41;;;;;;;0.88;0.60;;;9.40;91.20;;;;;;5094256;28;20057;-75
2023/11/06 06:46:07;;;;;;;0.82;0.70;;;9.40;91.20;;;;;;5094439;28;20043;-75
2023/11/06 06:48:32;;;;;;;1.42;0.95;;;9.50;91.20;;;;;;5077679;28;20043;-75
2023/11/06 06:50:58;;;;;;;0.50;0.50;;;9.50;91.20;;;;;;5112510;28;20432;-76
2023/11/06 06:53:24;;;;;;;2.40;0.70;;;9.50;91.20;;;;;;5077996;28;20118;-75
2023/11/06 06:55:50;;;;;;;2.00;0.80;;;9.50;91.20;;;;;;5094613;28;20481;-75
2023/11/06 06:58:16;;;;;;;1.23;0.70;;;9.50;91.20;;;;;;5112329;28;20051;-74
2023/11/06 07:00:43;;;;;;;1.77;0.85;;;9.50;91.20;;;;;;5094253;28;20112;-75
2023/11/06 07:03:09;;;;;;;1.38;0.70;;;9.60;91.20;;;;;;5113047;28;20046;-74
2023/11/06 07:05:35;;;;;;;1.52;0.65;;;9.60;91.20;;;;;;5094469;28;20043;-75
2023/11/06 07:08:01;;;;;;;0.90;0.63;;;9.50;91.10;;;;;;5112273;28;20396;-76
2023/11/06 07:10:27;;;;;;;0.80;0.65;;;9.50;91.20;;;;;;5112609;28;20035;-75
2023/11/06 07:12:55;;;;;;;2.22;0.70;;;9.50;91.20;;;;;;5077556;28;20457;-74
2023/11/06 07:15:22;;;;;;;1.33;0.75;;;9.60;91.20;;;;;;5112611;28;20043;-75
2023/11/06 07:17:48;;;;;;;2.80;0.65;;;9.60;91.20;;;;;;5095135;28;20051;-74
2023/11/06 07:20:15;;;;;;;1.25;0.73;;;9.60;91.20;;;;;;5077080;28;20043;-77
2023/11/06 07:22:42;;;;;;;0.90;0.70;;;9.60;91.20;;;;;;5112289;28;20047;-74
2023/11/06 07:25:09;;;;;;;1.15;0.70;;;9.60;91.20;;;;;;5060325;28;20497;-74
2023/11/06 07:27:35;;;;;;;1.85;0.80;;;9.60;91.20;;;;;;5113773;28;20043;-75
2023/11/06 07:30:01;;;;;;;0.63;0.60;;;9.60;91.20;;;;;;5097146;28;20184;-74
2023/11/06 07:32:26;;;;;;;1.88;0.80;;;9.60;91.20;;;;;;5097477;28;20378;-75
2023/11/06 07:34:52;;;;;;;2.92;0.80;;;9.60;91.20;;;;;;5080656;28;20036;-75
2023/11/06 07:37:20;;;;;;;2.72;0.77;;;9.60;91.20;;;;;;5080685;28;20036;-76
2023/11/06 07:39:54;;;;;;;3.10;0.73;;;9.60;91.10;;;;;;5106324;28;20046;-75
2023/11/06 07:42:27;;;;;;;2.03;0.90;;;9.60;91.10;;;;;;5053514;28;20049;-76
2023/11/06 07:45:21;;;;;;;3.13;0.80;;;9.70;91.10;;;;;;5018415;28;20064;-76
2023/11/06 07:51:22;;;;;;;1.35;0.70;;;9.70;91.10;;;;;;4977751;28;20219;-76
2023/11/06 07:56:55;;;;;;;2.35;0.73;;;9.70;91.00;;;;;;4951980;29;20397;-76
2023/11/06 08:02:34;;;;;;;1.17;0.60;;;9.80;90.90;;;;;;4915127;29;19922;-77
2023/11/06 08:05:38;;;;;;;3.63;0.60;;;9.80;90.90;;;;;;4900234;29;20650;-76
2023/11/06 08:12:18;;;;;;;2.38;0.82;;;9.80;90.80;;;;;;4876142;29;20040;-76
2023/11/06 08:19:23;;;;;;;3.08;0.80;;;9.90;90.70;;;;;;4823123;29;20077;-76
2023/11/06 08:22:10;;;;;;;2.85;0.80;;;9.90;90.70;;;;;;4831854;29;20083;-76
2023/11/06 08:25:31;;;;;;;1.27;0.70;;;9.90;90.70;;;;;;4815041;29;20038;-76
2023/11/06 08:32:22;;;;;;;1.55;0.60;;;9.90;90.70;;;;;;4778801;30;20246;-75
2023/11/06 08:35:27;;;;;;;1.42;0.70;;;10.00;90.60;;;;;;4779555;29;20054;-76
2023/11/06 08:49:08;;;;;;;1.63;0.65;;;10.20;90.40;;;;;;4774513;29;20051;-76
2023/11/06 08:51:39;;;;;;;3.60;1.00;;;10.20;90.40;;;;;;4754715;30;20044;-75
2023/11/06 08:54:11;;;;;;;1.00;0.50;;;10.20;90.40;;;;;;4771177;29;20054;-75
2023/11/06 08:56:40;;;;;;;2.67;0.90;;;10.30;90.30;;;;;;4786421;29;20051;-76
2023/11/06 08:59:05;;;;;;;2.75;0.90;;;10.50;90.30;;;;;;4786245;29;20048;-74
2023/11/06 09:01:31;;;;;;;2.53;0.85;;;10.50;90.30;;;;;;4778604;29;20047;-74
2023/11/06 09:03:57;;;;;;;2.33;0.70;;;10.50;90.20;;;;;;4768373;30;20515;-75
2023/11/06 09:06:26;;;;;;;2.22;0.80;;;10.60;90.10;;;;;;4783143;29;20058;-76
2023/11/06 09:09:24;;;;;;;2.15;0.98;;;10.70;90.10;;;;;;4821777;29;20051;-77
2023/11/06 09:12:58;;;;;;;3.58;1.10;;;10.70;90.00;;;;;;4842513;29;20060;-77
2023/11/06 09:17:12;;;;;;;2.83;0.70;;;10.80;90.00;;;;;;4838050;29;20053;-77
2023/11/06 09:23:47;;;;;;;3.80;0.93;;;10.80;90.00;;;;;;4819647;29;20185;-76
2023/11/06 09:29:33;;;;;;;4.18;1.08;;;10.90;89.90;;;;;;4765962;30;20117;-75
2023/11/06 09:32:00;;;;;;;3.03;1.05;;;10.80;89.70;;;;;;4753027;30;20044;-74
2023/11/06 09:34:25;;;;;;;3.28;1.10;;;10.80;89.80;;;;;;4767840;30;20052;-76
2023/11/06 09:36:51;;;;;;;4.55;1.15;;;10.80;90.20;;;;;;4807313;29;20493;-76
2023/11/06 09:39:17;;;;;;;1.98;0.85;;;10.90;89.80;;;;;;4821750;29;20061;-74
2023/11/06 09:41:43;;;;;;;0.98;0.73;;;10.90;89.70;;;;;;4822551;29;20575;-74
2023/11/06 09:44:09;;;;;;;2.88;1.00;;;10.90;89.60;;;;;;4822045;29;20074;-73
2023/11/06 09:46:35;;;;;;;3.28;1.00;;;11.00;89.50;;;;;;4804955;29;20058;-74
2023/11/06 09:49:06;;;;;;;2.13;0.88;;;11.00;89.40;;;;;;4806141;29;20103;-75
2023/11/06 09:51:34;;;;;;;3.00;1.00;;;11.00;90.00;;;;;;4809242;29;20103;-75
2023/11/06 09:54:04;;;;;;;2.50;0.93;;;11.00;90.00;;;;;;4839264;29;20647;-73
2023/11/06 09:56:31;;;;;;;1.77;0.82;;;11.00;89.50;;;;;;4912263;29;20039;-74
2023/11/06 09:58:58;;;;;;;3.08;0.90;;;11.10;89.50;;;;;;4953128;28;20101;-75
2023/11/06 10:01:27;;;;;;;2.30;0.77;;;11.10;89.40;;;;;;5093104;28;20040;-75
2023/11/06 10:03:56;;;;;;;2.28;0.85;;;11.20;89.40;;;;;;5078768;28;20130;-76
2023/11/06 10:06:22;;;;;;;1.25;0.80;;;11.20;89.40;;;;;;5093242;28;20131;-76
2023/11/06 10:08:48;;;;;;;4.18;1.00;;;11.20;89.20;;;;;;5113063;28;20044;-75
2023/11/06 10:11:23;;;;;;;1.70;0.88;;;11.40;89.10;;;;;;5095113;28;20073;-76
2023/11/06 10:13:51;;;;;;;2.35;0.80;;;11.30;89.00;;;;;;5062028;28;20046;-76
2023/11/06 10:16:22;;;;;;;2.45;0.80;;;11.30;88.90;;;;;;5094927;28;20031;-76
2023/11/06 10:18:49;;;;;;;3.38;0.90;;;11.30;88.90;;;;;;5078485;28;20058;-76
2023/11/06 10:21:28;;;;;;;2.83;0.90;;;11.30;88.90;;;;;;5113065;28;20110;-76
2023/11/06 10:23:59;;;;;;;2.42;0.80;;;11.30;89.00;;;;;;5092817;28;20100;-76
2023/11/06 10:26:31;;;;;;;2.05;0.70;;;11.30;89.10;;;;;;5112901;28;20062;-77
2023/11/06 10:29:11;;;;;;;1.63;0.70;;;11.30;89.10;;;;;;5113003;28;20040;-74
2023/11/06 10:31:40;;;;;;;3.33;0.90;;;11.40;89.00;;;;;;5113141;28;20084;-74
2023/11/06 10:34:26;;;;;;;1.40;0.80;;;11.40;88.90;;;;;;5078270;28;20036;-75
2023/11/06 10:37:00;;;;;;;2.13;0.80;;;11.40;88.90;;;;;;5112396;28;20481;-76
2023/11/06 10:39:27;;;;;;;2.45;1.00;;;11.40;88.60;;;;;;5061269;28;20044;-76
2023/11/06 10:42:00;;;;;;;3.78;1.00;;;11.40;88.70;;;;;;5094906;28;20148;-75
2023/11/06 10:44:33;;;;;;;2.25;0.82;;;11.40;88.60;;;;;;5092590;28;20489;-76
2023/11/06 10:47:06;;;;;;;2.88;1.15;;;11.50;88.60;;;;;;5092760;28;20048;-75
2023/11/06 10:49:35;;;;;;;2.22;0.90;;;11.50;88.50;;;;;;5111519;28;20035;-75
2023/11/06 10:52:06;;;;;;;2.33;1.00;;;11.60;88.40;;;;;;5094983;28;20042;-74
2023/11/06 10:54:33;;;;;;;2.22;0.95;;;11.60;88.20;;;;;;5094303;28;20074;-74
2023/11/06 10:57:00;;;;;;;2.80;0.95;;;11.70;88.10;;;;;;5077659;28;20060;-74
2023/11/06 10:59:28;;;;;;;5.68;1.10;;;11.80;87.90;;;;;;5112493;28;20043;-74
2023/11/06 11:01:56;;;;;;;3.22;1.48;;;11.80;88.30;;;;;;5114518;28;20043;-75
2023/11/06 11:04:24;;;;;;;4.38;0.90;;;11.80;87.70;;;;;;5116524;28;20047;-74
2023/11/06 11:06:51;;;;;;;4.55;1.23;;;11.90;87.60;;;;;;5097886;28;20050;-76
2023/11/06 11:09:17;;;;;;;2.63;0.80;;;11.80;87.60;;;;;;5097983;28;20082;-76
2023/11/06 11:11:46;;;;;;;1.73;0.90;;;11.90;87.70;;;;;;5098317;28;20063;-75
2023/11/06 11:14:13;;;;;;;3.25;0.98;;;11.90;87.60;;;;;;5056290;28;20060;-74
2023/11/06 11:16:41;;;;;;;2.15;0.68;;;11.90;87.50;;;;;;5073116;28;20102;-75
2023/11/06 11:19:24;;;;;;;3.05;1.00;;;11.80;87.50;;;;;;5073377;28;20036;-74
2023/11/06 11:22:08;;;;;;;3.13;0.80;;;11.90;87.70;;;;;;5056513;28;20468;-75
2023/11/06 11:24:49;;;;;;;1.38;0.80;;;11.80;87.70;;;;;;5073674;28;20131;-75
2023/11/06 11:27:17;;;;;;;1.10;0.60;;;11.90;87.70;;;;;;5037713;28;20048;-75
2023/11/06 11:30:02;;;;;;;2.53;1.08;;;11.90;87.70;;;;;;5056026;28;20036;-74
2023/11/06 11:32:51;;;;;;;2.42;0.82;;;11.90;87.50;;;;;;5056647;28;20041;-75
2023/11/06 11:35:51;;;;;;;0.88;0.65;;;11.90;87.40;;;;;;5073121;28;20123;-75
2023/11/06 11:38:21;;;;;;;2.20;0.88;;;11.90;87.50;;;;;;5086024;28;20084;-75
2023/11/06 11:41:05;;;;;;;1.10;0.82;;;11.90;87.50;;;;;;5095406;28;20478;-74
2023/11/06 11:43:39;;;;;;;2.00;0.70;;;12.00;87.70;;;;;;5080494;28;20039;-75
2023/11/06 11:46:37;;;;;;;1.75;0.77;;;11.90;87.50;;;;;;5113782;28;20063;-76
2023/11/06 11:49:05;;;;;;;2.83;0.88;;;11.90;87.50;;;;;;5095122;28;20192;-76
2023/11/06 11:51:47;;;;;;;1.85;0.75;;;11.90;87.50;;;;;;5063967;28;20046;-76
2023/11/06 11:54:27;;;;;;;2.08;0.80;;;12.10;87.50;;;;;;5096490;28;20077;-74
2023/11/06 11:56:53;;;;;;;4.65;0.90;;;12.00;88.00;;;;;;5097660;28;20067;-75
2023/11/06 11:59:18;;;;;;;1.40;0.75;;;12.10;87.30;;;;;;5115902;28;20043;-74
2023/11/06 12:01:45;;;;;;;1.83;0.80;;;11.90;87.20;;;;;;5096759;28;20378;-74
2023/11/06 12:04:26;;;;;;;1.67;0.88;;;12.00;87.30;;;;;;5096921;28;20044;-74
2023/11/06 12:07:24;;;;;;;2.22;0.90;;;12.10;87.30;;;;;;5096768;28;20067;-75
2023/11/06 12:09:53;;;;;;;3.95;0.82;;;12.10;87.30;;;;;;5100472;28;20042;-76
2023/11/06 12:12:25;;;;;;;1.77;0.73;;;12.00;87.20;;;;;;5095919;28;20043;-76
2023/11/06 12:15:01;;;;;;;1.55;0.77;;;12.10;87.30;;;;;;5096630;28;20096;-76
2023/11/06 12:17:33;;;;;;;2.35;0.80;;;12.20;87.20;;;;;;5081553;28;20393;-75
2023/11/06 12:20:09;;;;;;;1.58;0.80;;;12.20;87.00;;;;;;5079813;28;20114;-76
2023/11/06 12:22:45;;;;;;;1.73;0.65;;;12.30;87.00;;;;;;5114807;28;20126;-75
2023/11/06 12:25:11;;;;;;;4.22;0.80;;;12.30;86.90;;;;;;5094999;28;20039;-75
2023/11/06 12:27:37;;;;;;;0.80;0.70;;;12.20;86.70;;;;;;5114836;28;20493;-75
2023/11/06 12:30:08;;;;;;;1.95;0.88;;;12.20;86.80;;;;;;5096953;28;20043;-76
2023/11/06 12:32:35;;;;;;;2.88;0.60;;;12.20;87.00;;;;;;5080234;28;20032;-76
2023/11/06 12:35:19;;;;;;;1.90;0.80;;;12.10;87.00;;;;;;5096756;28;20090;-74
2023/11/06 12:37:50;;;;;;;1.23;0.70;;;12.10;87.00;;;;;;5097565;28;20066;-76
2023/11/06 12:40:16;;;;;;;;;;;12.20;87.20;;;;;;5063806;28;20040;-75
2023/11/06 12:42:44;;;;;;;0.82;0.50;;;12.10;87.20;;;;;;5096400;28;20408;-76
2023/11/06 12:45:39;;;;;;;1.33;0.43;;;12.10;87.20;;;;;;5096372;28;20102;-76
2023/11/06 12:48:28;;;;;;;3.45;0.70;;;12.10;87.20;;;;;;5113829;28;20511;-75
2023/11/06 12:51:05;;;;;;;2.00;0.55;;;12.10;87.20;;;;;;5114379;28;20130;-76
2023/11/06 12:53:32;;;;;;;2.67;0.50;;;12.00;87.20;;;;;;5096271;28;20039;-76
2023/11/06 12:55:59;;;;;;;1.20;0.50;;;12.00;87.40;;;;;;5096717;28;20063;-77
2023/11/06 12:58:26;;;;;;;0.40;0.40;;;11.90;87.50;;;;;;5114638;28;20040;-75
2023/11/06 13:00:58;;;;;;;1.50;0.57;;;11.80;87.60;;;;;;5096199;28;20059;-74
2023/11/06 13:03:27;;;;;;;1.92;0.70;;;11.70;87.90;;;;;;5095846;28;20126;-75
2023/11/06 13:05:56;;;;;;;1.33;0.52;;;11.70;88.10;;;;;;5114509;28;20390;-75
2023/11/06 13:08:26;;;;;;;1.30;0.60;;;11.60;88.20;;;;;;5096391;28;20069;-76
2023/11/06 13:10:53;;;;;;;1.25;0.60;;;11.70;88.40;;;;;;5114206;28;20125;-76
2023/11/06 13:13:19;;;;;;;1.05;0.60;;;11.60;88.40;;;;;;5096631;28;20043;-77
2023/11/06 13:15:48;;;;;;;1.70;0.40;;;11.70;88.50;;;;;;5078913;28;20066;-75
2023/11/06 13:18:14;;;;;;;0.90;0.60;;;11.60;88.50;;;;;;5114132;28;20046;-76
2023/11/06 13:20:53;;;;;;;2.38;0.75;;;11.70;88.50;;;;;;5114585;28;20144;-76
2023/11/06 13:23:21;;;;;;;0.63;0.40;;;11.60;88.40;;;;;;5096366;28;20046;-76
2023/11/06 13:25:47;;;;;;;0.52;0.35;;;11.70;88.50;;;;;;5079720;28;20047;-75
2023/11/06 13:28:13;;;;;;;1.10;0.50;;;11.70;88.50;;;;;;5096310;28;20044;-75
2023/11/06 13:30:39;;;;;;;2.40;0.52;;;11.60;88.40;;;;;;5081901;28;20074;-76
2023/11/06 13:33:08;;;;;;;1.48;0.50;;;11.60;88.30;;;;;;5113849;28;20043;-76
2023/11/06 13:35:35;;;;;;;1.83;0.70;;;11.70;88.40;;;;;;5095980;28;20036;-76
2023/11/06 13:38:02;;;;;;;0.75;0.40;;;11.80;88.40;;;;;;5114005;28;20063;-77
2023/11/06 13:40:30;;;;;;;1.23;0.50;;;11.70;88.30;;;;;;5096488;28;20047;-77
2023/11/06 13:42:57;;;;;;;1.85;0.60;;;11.70;88.30;;;;;;5095695;28;20448;-76
2023/11/06 13:45:24;;;;;;;1.35;0.60;;;11.80;88.30;;;;;;5114077;28;20520;-76